createdAt,value
2019-01-11T00:00:30.136Z,17.40
2019-01-11T00:01:30.088Z,17.10
2019-01-11T00:02:30.051Z,17.90
2019-01-11T00:03:30.008Z,17.30
2019-01-11T00:04:29.969Z,18.40
2019-01-11T00:05:29.930Z,19.50
2019-01-11T00:06:29.887Z,17.40
2019-01-11T00:07:29.850Z,18.10
2019-01-11T00:08:29.808Z,18.00
2019-01-11T00:09:29.780Z,17.90
2019-01-11T00:10:30.544Z,18.60
2019-01-11T00:11:29.707Z,19.80
2019-01-11T00:12:29.651Z,20.10
2019-01-11T00:13:29.608Z,19.70
2019-01-11T00:14:29.590Z,20.40
2019-01-11T00:15:29.529Z,20.80
2019-01-11T00:16:29.488Z,20.60
2019-01-11T00:17:29.452Z,21.00
2019-01-11T00:18:29.410Z,25.40
2019-01-11T00:19:29.371Z,20.90
2019-01-11T00:20:29.329Z,22.80
2019-01-11T00:21:29.286Z,22.10
2019-01-11T00:22:29.250Z,22.20
2019-01-11T00:23:29.210Z,22.30
2019-01-11T00:24:29.171Z,21.60
2019-01-11T00:25:29.133Z,22.90
2019-01-11T00:26:29.088Z,24.70
2019-01-11T00:27:29.050Z,24.30
2019-01-11T00:28:29.009Z,24.30
2019-01-11T00:29:28.971Z,23.50
2019-01-11T00:30:28.930Z,24.40
2019-01-11T00:31:28.890Z,25.60
2019-01-11T00:32:28.846Z,25.90
2019-01-11T00:33:28.812Z,27.20
2019-01-11T00:34:28.768Z,28.10
2019-01-11T00:35:28.731Z,26.80
2019-01-11T00:36:28.687Z,27.00
2019-01-11T00:37:28.650Z,26.60
2019-01-11T00:38:28.610Z,25.70
2019-01-11T00:39:28.566Z,25.80
2019-01-11T00:40:28.528Z,25.80
2019-01-11T00:41:28.505Z,28.00
2019-01-11T00:42:28.448Z,27.70
2019-01-11T00:43:28.408Z,29.00
2019-01-11T00:44:28.371Z,28.90
2019-01-11T00:45:28.328Z,28.90
2019-01-11T00:46:28.290Z,28.50
2019-01-11T00:47:28.246Z,27.80
2019-01-11T00:48:28.211Z,27.20
2019-01-11T00:49:28.166Z,25.20
2019-01-11T00:50:28.130Z,26.30
2019-01-11T00:51:28.085Z,24.00
2019-01-11T00:52:28.046Z,23.80
2019-01-11T00:53:28.009Z,23.00
2019-01-11T00:54:27.966Z,22.60
2019-01-11T00:55:27.928Z,22.60
2019-01-11T00:56:27.893Z,21.90
2019-01-11T00:57:27.847Z,23.30
2019-01-11T00:58:27.813Z,22.90
2019-01-11T00:59:27.770Z,22.40
2019-01-11T01:00:27.739Z,22.30
2019-01-11T01:01:27.680Z,23.70
2019-01-11T01:02:27.645Z,22.90
2019-01-11T01:03:27.616Z,24.00
2019-01-11T01:04:27.564Z,22.60
2019-01-11T01:05:27.529Z,22.90
2019-01-11T01:06:27.486Z,24.80
2019-01-11T01:07:27.442Z,24.00
2019-01-11T01:08:30.624Z,22.80
2019-01-11T01:09:27.365Z,22.00
2019-01-11T01:10:27.378Z,22.70
2019-01-11T01:11:27.287Z,23.20
2019-01-11T01:12:27.246Z,23.30
2019-01-11T01:13:27.204Z,24.30
2019-01-11T01:14:27.167Z,23.60
2019-01-11T01:15:27.123Z,24.70
2019-01-11T01:16:27.087Z,23.10
2019-01-11T01:17:27.046Z,23.00
2019-01-11T01:18:27.003Z,24.10
2019-01-11T01:19:26.965Z,24.10
2019-01-11T01:20:26.925Z,23.80
2019-01-11T01:21:26.892Z,25.00
2019-01-11T01:22:26.843Z,24.60
2019-01-11T01:23:26.805Z,24.40
2019-01-11T01:24:26.777Z,25.00
2019-01-11T01:25:26.735Z,24.60
2019-01-11T01:26:26.684Z,23.30
2019-01-11T01:27:26.645Z,24.10
2019-01-11T01:28:26.604Z,23.30
2019-01-11T01:29:26.563Z,23.70
2019-01-11T01:30:26.541Z,23.40
2019-01-11T01:31:26.483Z,23.50
2019-01-11T01:32:26.445Z,23.60
2019-01-11T01:33:26.404Z,23.40
2019-01-11T01:34:26.366Z,25.10
2019-01-11T01:35:26.321Z,22.80
2019-01-11T01:36:26.283Z,24.50
2019-01-11T01:37:26.244Z,25.10
2019-01-11T01:38:26.207Z,25.00
2019-01-11T01:39:26.161Z,24.10
2019-01-11T01:40:26.121Z,24.80
2019-01-11T01:41:26.084Z,25.40
2019-01-11T01:42:26.042Z,26.00
2019-01-11T01:43:26.002Z,25.80
2019-01-11T01:44:25.963Z,25.30
2019-01-11T01:45:25.916Z,28.00
2019-01-11T01:46:25.884Z,26.80
2019-01-11T01:47:25.867Z,27.40
2019-01-11T01:48:25.801Z,29.20
2019-01-11T01:49:26.677Z,27.60
2019-01-11T01:50:25.727Z,28.20
2019-01-11T01:51:25.697Z,27.00
2019-01-11T01:52:25.646Z,26.30
2019-01-11T01:53:25.603Z,27.80
2019-01-11T01:54:25.563Z,28.60
2019-01-11T01:55:25.526Z,27.70
2019-01-11T01:56:25.486Z,27.80
2019-01-11T01:57:25.444Z,28.30
2019-01-11T01:58:25.432Z,27.60
2019-01-11T01:59:25.365Z,29.00
2019-01-11T02:00:25.326Z,30.00
2019-01-11T02:01:25.283Z,28.30
2019-01-11T02:02:25.244Z,29.10
2019-01-11T02:03:25.205Z,29.90
2019-01-11T02:04:25.166Z,29.70
2019-01-11T02:05:25.129Z,31.40
2019-01-11T02:06:25.092Z,31.80
2019-01-11T02:07:25.097Z,32.00
2019-01-11T02:08:25.008Z,32.80
2019-01-11T02:09:24.967Z,32.90
2019-01-11T02:10:24.933Z,32.50
2019-01-11T02:11:24.890Z,33.90
2019-01-11T02:12:24.848Z,33.10
2019-01-11T02:13:24.808Z,33.60
2019-01-11T02:14:24.767Z,33.60
2019-01-11T02:15:24.730Z,32.60
2019-01-11T02:16:24.687Z,33.70
2019-01-11T02:17:24.650Z,33.80
2019-01-11T02:18:24.622Z,34.60
2019-01-11T02:19:24.570Z,35.00
2019-01-11T02:20:24.533Z,35.10
2019-01-11T02:21:24.490Z,34.30
2019-01-11T02:22:24.453Z,34.60
2019-01-11T02:23:24.411Z,35.20
2019-01-11T02:24:24.377Z,35.40
2019-01-11T02:25:24.332Z,36.30
2019-01-11T02:26:24.290Z,37.20
2019-01-11T02:27:24.247Z,37.60
2019-01-11T02:28:24.224Z,36.00
2019-01-11T02:29:24.191Z,36.60
2019-01-11T02:30:24.138Z,36.70
2019-01-11T02:31:24.092Z,38.40
2019-01-11T02:32:24.056Z,35.80
2019-01-11T02:33:25.001Z,36.60
2019-01-11T02:34:24.008Z,36.70
2019-01-11T02:35:23.947Z,36.80
2019-01-11T02:36:23.893Z,35.60
2019-01-11T02:37:23.856Z,36.30
2019-01-11T02:38:23.811Z,35.20
2019-01-11T02:39:23.771Z,35.40
2019-01-11T02:40:23.741Z,36.00
2019-01-11T02:41:23.696Z,33.40
2019-01-11T02:42:23.655Z,34.70
2019-01-11T02:43:23.615Z,34.40
2019-01-11T02:44:23.573Z,33.30
2019-01-11T02:45:23.542Z,34.20
2019-01-11T02:46:23.495Z,34.20
2019-01-11T02:47:23.847Z,34.90
2019-01-11T02:48:23.406Z,33.40
2019-01-11T02:49:23.372Z,33.60
2019-01-11T02:50:23.334Z,34.10
2019-01-11T02:51:23.294Z,35.00
2019-01-11T02:52:23.253Z,35.10
2019-01-11T02:53:23.211Z,34.00
2019-01-11T02:54:23.172Z,34.40
2019-01-11T02:55:23.134Z,35.30
2019-01-11T02:56:23.093Z,34.90
2019-01-11T02:57:23.767Z,37.00
2019-01-11T02:58:23.017Z,36.60
2019-01-11T02:59:22.973Z,38.90
2019-01-11T03:00:22.934Z,37.70
2019-01-11T03:01:22.893Z,37.50
2019-01-11T03:02:22.853Z,38.20
2019-01-11T03:03:22.823Z,38.70
2019-01-11T03:04:22.789Z,39.20
2019-01-11T03:05:22.732Z,39.20
2019-01-11T03:06:22.699Z,38.60
2019-01-11T03:07:22.653Z,38.60
2019-01-11T03:08:22.611Z,38.10
2019-01-11T03:09:22.594Z,38.80
2019-01-11T03:10:22.528Z,38.40
2019-01-11T03:11:22.492Z,39.20
2019-01-11T03:12:22.461Z,40.30
2019-01-11T03:13:22.426Z,37.80
2019-01-11T03:14:22.372Z,40.40
2019-01-11T03:15:22.334Z,38.20
2019-01-11T03:16:22.288Z,39.20
2019-01-11T03:17:22.255Z,40.50
2019-01-11T03:18:22.216Z,39.10
2019-01-11T03:19:22.183Z,40.50
2019-01-11T03:20:22.135Z,41.00
2019-01-11T03:21:22.103Z,40.20
2019-01-11T03:22:22.058Z,40.30
2019-01-11T03:23:22.015Z,39.70
2019-01-11T03:24:21.975Z,40.10
2019-01-11T03:25:21.937Z,38.00
2019-01-11T03:26:21.893Z,37.80
2019-01-11T03:27:21.855Z,37.60
2019-01-11T03:28:21.815Z,37.10
2019-01-11T03:29:21.768Z,38.10
2019-01-11T03:30:21.741Z,36.50
2019-01-11T03:31:21.696Z,38.90
2019-01-11T03:32:21.654Z,38.30
2019-01-11T03:33:21.617Z,35.80
2019-01-11T03:34:21.575Z,39.20
2019-01-11T03:35:21.536Z,37.90
2019-01-11T03:36:21.499Z,37.20
2019-01-11T03:37:21.456Z,36.70
2019-01-11T03:38:21.415Z,37.20
2019-01-11T03:39:21.377Z,37.30
2019-01-11T03:40:21.340Z,37.90
2019-01-11T03:41:21.301Z,38.00
2019-01-11T03:42:21.254Z,39.10
2019-01-11T03:43:21.215Z,37.30
2019-01-11T03:44:21.172Z,37.70
2019-01-11T03:45:21.140Z,37.90
2019-01-11T03:46:21.097Z,39.60
2019-01-11T03:47:21.053Z,38.90
2019-01-11T03:48:21.017Z,38.30
2019-01-11T03:49:20.987Z,38.00
2019-01-11T03:50:20.939Z,38.30
2019-01-11T03:51:20.897Z,36.60
2019-01-11T03:52:21.173Z,35.30
2019-01-11T03:53:20.817Z,36.80
2019-01-11T03:54:20.778Z,38.70
2019-01-11T03:55:20.736Z,36.40
2019-01-11T03:56:20.727Z,37.90
2019-01-11T03:57:20.660Z,41.40
2019-01-11T03:58:20.616Z,38.60
2019-01-11T03:59:20.586Z,40.00
2019-01-11T04:00:20.537Z,38.50
2019-01-11T04:01:20.495Z,39.10
2019-01-11T04:02:20.456Z,40.40
2019-01-11T04:03:20.420Z,40.10
2019-01-11T04:04:20.376Z,41.30
2019-01-11T04:05:20.338Z,39.60
2019-01-11T04:06:20.297Z,41.00
2019-01-11T04:07:20.256Z,41.50
2019-01-11T04:08:20.215Z,40.80
2019-01-11T04:09:20.177Z,40.50
2019-01-11T04:10:20.135Z,39.90
2019-01-11T04:11:20.096Z,42.20
2019-01-11T04:12:20.050Z,42.70
2019-01-11T04:13:20.015Z,41.20
2019-01-11T04:14:19.977Z,42.50
2019-01-11T04:15:19.936Z,43.90
2019-01-11T04:16:19.895Z,44.70
2019-01-11T04:17:19.858Z,43.90
2019-01-11T04:18:19.816Z,44.60
2019-01-11T04:19:19.772Z,43.90
2019-01-11T04:20:19.735Z,44.30
2019-01-11T04:21:19.695Z,44.50
2019-01-11T04:22:19.653Z,44.90
2019-01-11T04:23:19.613Z,45.10
2019-01-11T04:24:19.573Z,45.90
2019-01-11T04:25:19.536Z,43.80
2019-01-11T04:26:19.491Z,45.60
2019-01-11T04:27:19.476Z,46.10
2019-01-11T04:28:19.418Z,45.70
2019-01-11T04:29:19.374Z,45.40
2019-01-11T04:30:19.336Z,43.50
2019-01-11T04:31:19.290Z,44.70
2019-01-11T04:32:19.252Z,43.30
2019-01-11T04:33:19.213Z,43.90
2019-01-11T04:34:19.182Z,43.50
2019-01-11T04:35:19.133Z,41.80
2019-01-11T04:36:19.094Z,41.90
2019-01-11T04:37:19.054Z,41.60
2019-01-11T04:38:19.013Z,39.30
2019-01-11T04:39:18.994Z,38.90
2019-01-11T04:40:18.932Z,42.80
2019-01-11T04:41:18.894Z,41.20
2019-01-11T04:42:18.850Z,43.50
2019-01-11T04:43:18.810Z,40.90
2019-01-11T04:44:18.772Z,41.50
2019-01-11T04:45:18.730Z,42.70
2019-01-11T04:46:18.693Z,40.80
2019-01-11T04:47:18.654Z,41.10
2019-01-11T04:48:18.611Z,41.10
2019-01-11T04:49:18.570Z,43.10
2019-01-11T04:50:18.529Z,42.30
2019-01-11T04:51:18.490Z,42.00
2019-01-11T04:52:18.454Z,42.20
2019-01-11T04:53:18.413Z,43.20
2019-01-11T04:54:18.368Z,40.30
2019-01-11T04:55:18.329Z,41.90
2019-01-11T04:56:18.294Z,41.60
2019-01-11T04:57:18.255Z,43.50
2019-01-11T04:58:18.213Z,41.10
2019-01-11T04:59:18.168Z,41.50
2019-01-11T05:00:18.124Z,41.40
2019-01-11T05:01:18.090Z,41.10
2019-01-11T05:02:18.051Z,40.70
2019-01-11T05:03:18.010Z,41.00
2019-01-11T05:04:17.967Z,40.50
2019-01-11T05:05:17.929Z,43.10
2019-01-11T05:06:17.890Z,41.10
2019-01-11T05:07:17.847Z,42.80
2019-01-11T05:08:17.808Z,43.70
2019-01-11T05:09:17.766Z,42.50
2019-01-11T05:10:17.730Z,42.90
2019-01-11T05:11:18.055Z,42.80
2019-01-11T05:12:17.649Z,44.40
2019-01-11T05:13:17.609Z,42.90
2019-01-11T05:14:17.575Z,44.60
2019-01-11T05:15:17.524Z,45.50
2019-01-11T05:16:17.491Z,45.40
2019-01-11T05:17:17.447Z,44.70
2019-01-11T05:18:17.409Z,44.50
2019-01-11T05:19:17.371Z,43.80
2019-01-11T05:20:17.415Z,45.00
2019-01-11T05:21:17.294Z,44.80
2019-01-11T05:22:17.251Z,45.50
2019-01-11T05:23:17.208Z,46.40
2019-01-11T05:24:17.168Z,43.00
2019-01-11T05:25:17.131Z,44.10
2019-01-11T05:26:17.089Z,46.40
2019-01-11T05:27:17.049Z,47.90
2019-01-11T05:28:17.026Z,46.50
2019-01-11T05:29:16.967Z,46.50
2019-01-11T05:30:16.929Z,44.20
2019-01-11T05:31:16.888Z,43.40
2019-01-11T05:32:16.846Z,44.20
2019-01-11T05:33:16.839Z,45.00
2019-01-11T05:34:16.768Z,45.30
2019-01-11T05:35:16.728Z,46.90
2019-01-11T05:36:16.688Z,47.80
2019-01-11T05:37:16.666Z,47.00
2019-01-11T05:38:16.610Z,46.60
2019-01-11T05:39:16.569Z,51.00
2019-01-11T05:40:16.528Z,51.50
2019-01-11T05:41:16.486Z,50.50
2019-01-11T05:42:16.451Z,50.00
2019-01-11T05:43:16.404Z,43.90
2019-01-11T05:44:16.368Z,44.60
2019-01-11T05:45:16.330Z,46.90
2019-01-11T05:46:16.287Z,49.90
2019-01-11T05:47:16.252Z,48.70
2019-01-11T05:48:16.205Z,49.20
2019-01-11T05:49:16.169Z,44.60
2019-01-11T05:50:16.129Z,45.00
2019-01-11T05:51:16.090Z,46.30
2019-01-11T05:52:16.046Z,44.70
2019-01-11T05:53:16.009Z,44.60
2019-01-11T05:54:15.971Z,46.40
2019-01-11T05:55:15.928Z,50.50
2019-01-11T05:56:15.883Z,51.20
2019-01-11T05:57:15.850Z,51.80
2019-01-11T05:58:15.807Z,50.60
2019-01-11T05:59:15.765Z,49.20
2019-01-11T06:00:15.730Z,49.10
2019-01-11T06:01:15.712Z,45.60
2019-01-11T06:02:16.038Z,45.10
2019-01-11T06:03:15.609Z,38.40
2019-01-11T06:04:15.569Z,39.30
2019-01-11T06:05:15.529Z,42.70
2019-01-11T06:06:15.489Z,42.40
2019-01-11T06:07:15.454Z,42.40
2019-01-11T06:08:15.414Z,38.50
2019-01-11T06:09:15.368Z,41.00
2019-01-11T06:10:15.327Z,39.20
2019-01-11T06:11:15.290Z,39.20
2019-01-11T06:12:15.249Z,40.60
2019-01-11T06:13:15.213Z,40.90
2019-01-11T06:14:15.166Z,42.20
2019-01-11T06:15:15.124Z,40.70
2019-01-11T06:16:15.088Z,39.60
2019-01-11T06:17:15.051Z,32.80
2019-01-11T06:18:15.021Z,37.60
2019-01-11T06:19:14.972Z,37.20
2019-01-11T06:20:14.927Z,31.80
2019-01-11T06:21:14.891Z,33.90
2019-01-11T06:22:14.850Z,34.30
2019-01-11T06:23:14.809Z,36.60
2019-01-11T06:24:14.769Z,33.30
2019-01-11T06:25:14.733Z,31.50
2019-01-11T06:26:14.695Z,32.40
2019-01-11T06:27:14.651Z,35.50
2019-01-11T06:28:14.609Z,33.90
2019-01-11T06:29:14.569Z,33.00
2019-01-11T06:30:14.528Z,32.40
2019-01-11T06:31:14.489Z,34.10
2019-01-11T06:32:14.447Z,31.10
2019-01-11T06:33:14.409Z,32.00
2019-01-11T06:34:14.392Z,29.60
2019-01-11T06:35:14.328Z,30.30
2019-01-11T06:36:14.290Z,32.10
2019-01-11T06:37:14.249Z,33.50
2019-01-11T06:38:14.206Z,33.60
2019-01-11T06:39:14.188Z,32.40
2019-01-11T06:40:14.127Z,31.50
2019-01-11T06:41:14.087Z,33.00
2019-01-11T06:42:14.046Z,31.50
2019-01-11T06:43:14.005Z,31.50
2019-01-11T06:44:13.967Z,30.80
2019-01-11T06:45:13.928Z,33.60
2019-01-11T06:46:13.889Z,33.10
2019-01-11T06:47:13.849Z,34.10
2019-01-11T06:48:13.806Z,32.20
2019-01-11T06:49:13.773Z,34.20
2019-01-11T06:50:13.727Z,31.80
2019-01-11T06:51:13.685Z,31.70
2019-01-11T06:52:13.648Z,31.40
2019-01-11T06:53:14.092Z,30.80
2019-01-11T06:54:13.567Z,32.50
2019-01-11T06:55:13.526Z,31.40
2019-01-11T06:56:13.487Z,31.60
2019-01-11T06:57:13.447Z,30.80
2019-01-11T06:58:13.410Z,32.40
2019-01-11T06:59:13.366Z,32.40
2019-01-11T07:00:13.328Z,34.20
2019-01-11T07:01:13.284Z,34.10
2019-01-11T07:02:13.246Z,35.60
2019-01-11T07:03:13.209Z,35.00
2019-01-11T07:04:13.167Z,34.90
2019-01-11T07:05:13.129Z,34.80
2019-01-11T07:06:13.091Z,34.30
2019-01-11T07:07:13.050Z,35.80
2019-01-11T07:08:13.008Z,35.50
2019-01-11T07:09:12.967Z,36.10
2019-01-11T07:10:12.928Z,35.60
2019-01-11T07:11:12.889Z,35.70
2019-01-11T07:12:12.845Z,35.10
2019-01-11T07:13:12.810Z,34.20
2019-01-11T07:14:12.769Z,35.00
2019-01-11T07:15:12.731Z,35.60
2019-01-11T07:16:12.694Z,35.60
2019-01-11T07:17:12.648Z,34.60
2019-01-11T07:18:12.610Z,34.00
2019-01-11T07:19:12.568Z,33.90
2019-01-11T07:20:12.534Z,36.00
2019-01-11T07:21:12.490Z,43.70
2019-01-11T07:22:12.469Z,44.00
2019-01-11T07:23:12.412Z,36.00
2019-01-11T07:24:12.380Z,33.80
2019-01-11T07:25:12.329Z,32.60
2019-01-11T07:26:12.306Z,29.40
2019-01-11T07:27:12.255Z,29.60
2019-01-11T07:28:13.723Z,29.90
2019-01-11T07:29:12.164Z,29.40
2019-01-11T07:30:12.133Z,31.10
2019-01-11T07:31:12.090Z,29.60
2019-01-11T07:32:12.063Z,29.30
2019-01-11T07:33:12.012Z,28.50
2019-01-11T07:34:11.971Z,29.60
2019-01-11T07:35:11.929Z,29.10
2019-01-11T07:36:11.891Z,30.70
2019-01-11T07:37:11.852Z,29.20
2019-01-11T07:38:11.810Z,28.70
2019-01-11T07:39:11.772Z,28.60
2019-01-11T07:40:11.733Z,28.10
2019-01-11T07:41:11.694Z,27.30
2019-01-11T07:42:11.653Z,26.90
2019-01-11T07:43:11.613Z,27.60
2019-01-11T07:44:11.579Z,26.40
2019-01-11T07:45:11.538Z,26.80
2019-01-11T07:46:11.495Z,27.50
2019-01-11T07:47:11.453Z,28.10
2019-01-11T07:48:11.415Z,27.50
2019-01-11T07:49:11.374Z,27.80
2019-01-11T07:50:11.340Z,27.40
2019-01-11T07:51:11.296Z,27.60
2019-01-11T07:52:11.255Z,28.30
2019-01-11T07:53:11.239Z,27.60
2019-01-11T07:54:11.177Z,29.10
2019-01-11T07:55:11.149Z,29.00
2019-01-11T07:56:11.100Z,30.60
2019-01-11T07:57:11.077Z,29.50
2019-01-11T07:58:11.030Z,28.60
2019-01-11T07:59:10.976Z,28.30
2019-01-11T08:00:10.937Z,30.30
2019-01-11T08:01:10.897Z,29.40
2019-01-11T08:02:10.857Z,30.10
2019-01-11T08:03:10.822Z,30.90
2019-01-11T08:04:10.782Z,29.10
2019-01-11T08:05:10.744Z,30.10
2019-01-11T08:06:10.700Z,29.90
2019-01-11T08:07:10.663Z,30.70
2019-01-11T08:08:10.623Z,32.30
2019-01-11T08:09:10.583Z,32.90
2019-01-11T08:10:10.548Z,31.80
2019-01-11T08:11:10.524Z,30.90
2019-01-11T08:12:10.465Z,32.30
2019-01-11T08:13:10.433Z,31.70
2019-01-11T08:14:10.384Z,31.80
2019-01-11T08:15:10.357Z,32.90
2019-01-11T08:16:10.305Z,32.40
2019-01-11T08:17:10.263Z,33.40
2019-01-11T08:18:10.227Z,33.30
2019-01-11T08:19:10.180Z,34.60
2019-01-11T08:20:10.146Z,31.60
2019-01-11T08:21:10.109Z,32.10
2019-01-11T08:22:10.069Z,34.90
2019-01-11T08:23:10.029Z,34.00
2019-01-11T08:24:09.984Z,35.10
2019-01-11T08:25:09.951Z,33.10
2019-01-11T08:26:09.961Z,34.10
2019-01-11T08:27:09.867Z,34.40
2019-01-11T08:28:09.828Z,33.20
2019-01-11T08:29:09.789Z,34.40
2019-01-11T08:30:09.754Z,32.40
2019-01-11T08:31:09.711Z,33.50
2019-01-11T08:32:09.669Z,34.70
2019-01-11T08:33:09.632Z,36.60
2019-01-11T08:34:09.593Z,36.30
2019-01-11T08:35:09.550Z,37.90
2019-01-11T08:36:09.507Z,39.20
2019-01-11T08:37:09.469Z,37.70
2019-01-11T08:38:09.435Z,36.70
2019-01-11T08:39:09.392Z,36.80
2019-01-11T08:40:09.356Z,39.10
2019-01-11T08:41:09.312Z,39.90
2019-01-11T08:42:09.270Z,39.90
2019-01-11T08:43:09.233Z,37.90
2019-01-11T08:44:09.194Z,39.30
2019-01-11T08:45:09.152Z,39.30
2019-01-11T08:46:09.141Z,40.90
2019-01-11T08:47:09.072Z,39.70
2019-01-11T08:48:09.034Z,38.70
2019-01-11T08:49:08.995Z,38.70
2019-01-11T08:50:08.956Z,37.10
2019-01-11T08:51:08.921Z,36.20
2019-01-11T08:52:08.876Z,37.10
2019-01-11T08:53:08.835Z,37.80
2019-01-11T08:54:08.798Z,36.70
2019-01-11T08:55:08.759Z,34.20
2019-01-11T08:56:08.763Z,37.30
2019-01-11T08:57:08.680Z,38.20
2019-01-11T08:58:09.002Z,36.00
2019-01-11T08:59:08.631Z,37.00
2019-01-11T09:00:08.557Z,34.20
2019-01-11T09:01:08.518Z,36.30
2019-01-11T09:02:08.480Z,36.60
2019-01-11T09:03:08.454Z,36.30
2019-01-11T09:04:08.400Z,34.80
2019-01-11T09:05:08.363Z,34.50
2019-01-11T09:06:08.323Z,37.00
2019-01-11T09:07:08.282Z,34.70
2019-01-11T09:08:08.242Z,36.50
2019-01-11T09:09:08.203Z,35.60
2019-01-11T09:10:08.164Z,35.30
2019-01-11T09:11:08.128Z,34.30
2019-01-11T09:12:08.082Z,34.90
2019-01-11T09:13:08.046Z,36.40
2019-01-11T09:14:08.000Z,35.60
2019-01-11T09:15:07.965Z,34.60
2019-01-11T09:16:07.923Z,34.30
2019-01-11T09:17:07.885Z,34.10
2019-01-11T09:18:07.846Z,35.30
2019-01-11T09:19:07.805Z,35.60
2019-01-11T09:20:07.767Z,36.20
2019-01-11T09:21:09.672Z,35.90
2019-01-11T09:22:07.685Z,33.30
2019-01-11T09:23:07.650Z,33.50
2019-01-11T09:24:07.609Z,32.10
2019-01-11T09:25:07.570Z,30.40
2019-01-11T09:26:07.528Z,30.10
2019-01-11T09:27:07.530Z,29.10
2019-01-11T09:28:07.451Z,30.80
2019-01-11T09:29:07.412Z,32.10
2019-01-11T09:30:07.375Z,32.30
2019-01-11T09:31:07.329Z,30.50
2019-01-11T09:32:07.297Z,33.00
2019-01-11T09:33:07.255Z,33.30
2019-01-11T09:34:07.216Z,34.80
2019-01-11T09:35:07.178Z,30.90
2019-01-11T09:36:07.138Z,32.20
2019-01-11T09:37:07.101Z,32.80
2019-01-11T09:38:07.073Z,31.80
2019-01-11T09:39:07.020Z,31.10
2019-01-11T09:40:06.980Z,29.50
2019-01-11T09:41:06.944Z,30.80
2019-01-11T09:42:06.905Z,28.60
2019-01-11T09:43:06.863Z,29.20
2019-01-11T09:44:06.827Z,29.10
2019-01-11T09:45:06.789Z,28.00
2019-01-11T09:46:06.748Z,29.30
2019-01-11T09:47:06.703Z,27.10
2019-01-11T09:48:06.669Z,26.60
2019-01-11T09:49:06.627Z,27.50
2019-01-11T09:50:06.589Z,26.70
2019-01-11T09:51:06.550Z,27.90
2019-01-11T09:52:06.511Z,27.30
2019-01-11T09:53:06.470Z,26.90
2019-01-11T09:54:06.453Z,25.20
2019-01-11T09:55:06.399Z,25.40
2019-01-11T09:56:06.362Z,24.90
2019-01-11T09:57:06.315Z,25.80
2019-01-11T09:58:06.279Z,24.80
2019-01-11T09:59:06.238Z,25.50
2019-01-11T10:00:06.203Z,24.40
2019-01-11T10:01:06.163Z,25.40
2019-01-11T10:02:06.122Z,25.20
2019-01-11T10:03:06.083Z,25.80
2019-01-11T10:04:06.038Z,26.40
2019-01-11T10:05:06.005Z,25.60
2019-01-11T10:06:06.106Z,23.80
2019-01-11T10:07:05.926Z,23.60
2019-01-11T10:08:05.886Z,23.50
2019-01-11T10:09:05.847Z,24.90
2019-01-11T10:10:05.809Z,24.00
2019-01-11T10:11:05.772Z,23.30
2019-01-11T10:12:05.732Z,24.00
2019-01-11T10:13:05.693Z,23.80
2019-01-11T10:14:05.653Z,23.30
2019-01-11T10:15:05.613Z,23.00
2019-01-11T10:16:05.573Z,23.70
2019-01-11T10:17:05.536Z,23.70
2019-01-11T10:18:05.495Z,23.60
2019-01-11T10:19:05.457Z,22.30
2019-01-11T10:20:05.416Z,24.60
2019-01-11T10:21:05.380Z,24.80
2019-01-11T10:22:05.339Z,25.10
2019-01-11T10:23:05.301Z,23.90
2019-01-11T10:24:05.261Z,24.00
2019-01-11T10:25:05.225Z,24.00
2019-01-11T10:26:05.184Z,24.20
2019-01-11T10:27:05.144Z,24.10
2019-01-11T10:28:05.110Z,24.60
2019-01-11T10:29:05.068Z,24.80
2019-01-11T10:30:05.028Z,24.50
2019-01-11T10:31:04.989Z,23.60
2019-01-11T10:32:04.949Z,24.70
2019-01-11T10:33:04.911Z,24.10
2019-01-11T10:34:04.873Z,24.90
2019-01-11T10:35:04.833Z,25.40
2019-01-11T10:36:04.793Z,25.70
2019-01-11T10:37:04.753Z,25.40
2019-01-11T10:38:04.715Z,26.60
2019-01-11T10:39:04.674Z,26.30
2019-01-11T10:40:04.645Z,25.70
2019-01-11T10:41:04.600Z,26.20
2019-01-11T10:42:04.558Z,25.20
2019-01-11T10:43:04.532Z,26.10
2019-01-11T10:44:04.482Z,24.00
2019-01-11T10:45:04.446Z,23.90
2019-01-11T10:46:04.403Z,25.00
2019-01-11T10:47:04.360Z,24.40
2019-01-11T10:48:04.323Z,26.00
2019-01-11T10:49:04.284Z,25.10
2019-01-11T10:50:04.250Z,24.70
2019-01-11T10:51:04.210Z,26.10
2019-01-11T10:52:04.170Z,25.50
2019-01-11T10:53:04.132Z,27.40
2019-01-11T10:54:04.092Z,27.00
2019-01-11T10:55:04.051Z,28.30
2019-01-11T10:56:04.014Z,27.50
2019-01-11T10:57:03.976Z,27.40
2019-01-11T10:58:03.935Z,28.10
2019-01-11T10:59:03.898Z,28.40
2019-01-11T11:00:03.885Z,27.50
2019-01-11T11:01:03.816Z,27.40
2019-01-11T11:02:03.777Z,27.10
2019-01-11T11:03:03.740Z,29.10
2019-01-11T11:04:03.701Z,28.30
2019-01-11T11:05:03.666Z,29.60
2019-01-11T11:06:03.634Z,28.40
2019-01-11T11:07:03.584Z,28.70
2019-01-11T11:08:03.547Z,29.40
2019-01-11T11:09:03.507Z,28.40
2019-01-11T11:10:03.471Z,28.80
2019-01-11T11:11:03.431Z,28.90
2019-01-11T11:12:03.389Z,30.20
2019-01-11T11:13:03.356Z,30.80
2019-01-11T11:14:03.313Z,29.00
2019-01-11T11:15:03.273Z,29.70
2019-01-11T11:16:03.332Z,28.80
2019-01-11T11:17:03.199Z,28.60
2019-01-11T11:18:03.160Z,30.70
2019-01-11T11:19:03.121Z,30.50
2019-01-11T11:20:03.082Z,30.00
2019-01-11T11:21:03.044Z,33.10
2019-01-11T11:22:03.002Z,33.60
2019-01-11T11:23:02.960Z,31.50
2019-01-11T11:24:02.927Z,29.90
2019-01-11T11:25:02.890Z,31.10
2019-01-11T11:26:02.849Z,29.90
2019-01-11T11:27:02.805Z,31.00
2019-01-11T11:28:02.771Z,31.00
2019-01-11T11:29:02.731Z,28.90
2019-01-11T11:30:02.693Z,27.30
2019-01-11T11:31:02.674Z,29.80
2019-01-11T11:32:02.621Z,28.10
2019-01-11T11:33:02.599Z,27.90
2019-01-11T11:34:02.542Z,26.90
2019-01-11T11:35:02.502Z,26.80
2019-01-11T11:36:02.462Z,27.30
2019-01-11T11:37:02.423Z,25.30
2019-01-11T11:38:02.390Z,26.00
2019-01-11T11:39:02.347Z,26.50
2019-01-11T11:40:02.310Z,27.20
2019-01-11T11:41:02.272Z,26.40
2019-01-11T11:42:02.237Z,26.80
2019-01-11T11:43:02.192Z,27.80
2019-01-11T11:44:02.161Z,27.40
2019-01-11T11:45:02.109Z,27.20
2019-01-11T11:46:02.078Z,26.50
2019-01-11T11:47:02.039Z,27.90
2019-01-11T11:48:02.003Z,27.60
2019-01-11T11:49:01.965Z,27.60
2019-01-11T11:50:01.927Z,26.60
2019-01-11T11:51:01.884Z,27.30
2019-01-11T11:52:01.847Z,28.00
2019-01-11T11:53:01.810Z,28.90
2019-01-11T11:54:01.774Z,29.60
2019-01-11T11:55:01.732Z,30.00
2019-01-11T11:56:01.694Z,28.90
2019-01-11T11:57:01.655Z,29.00
2019-01-11T11:58:01.618Z,29.00
2019-01-11T11:59:01.578Z,28.80
2019-01-11T12:00:01.562Z,30.00
2019-01-11T12:01:01.501Z,30.80
2019-01-11T12:02:01.465Z,29.40
2019-01-11T12:03:01.422Z,31.00
2019-01-11T12:04:01.388Z,30.00
2019-01-11T12:05:01.347Z,30.20
2019-01-11T12:06:01.310Z,29.70
2019-01-11T12:07:01.268Z,30.10
2019-01-11T12:08:01.229Z,29.50
2019-01-11T12:09:01.193Z,30.00
2019-01-11T12:10:01.161Z,30.60
2019-01-11T12:11:01.116Z,31.30
2019-01-11T12:12:01.076Z,32.10
2019-01-11T12:13:01.041Z,32.60
2019-01-11T12:14:01.000Z,33.60
2019-01-11T12:15:00.962Z,33.10
2019-01-11T12:16:00.925Z,32.60
2019-01-11T12:17:00.884Z,32.00
2019-01-11T12:18:00.847Z,31.60
2019-01-11T12:19:00.809Z,32.90
2019-01-11T12:20:00.769Z,30.80
2019-01-11T12:21:00.734Z,31.80
2019-01-11T12:22:01.715Z,32.00
2019-01-11T12:23:00.654Z,32.80
2019-01-11T12:24:00.616Z,34.10
2019-01-11T12:25:00.578Z,33.40
2019-01-11T12:26:00.539Z,33.60
2019-01-11T12:27:00.500Z,35.30
2019-01-11T12:28:00.462Z,32.80
2019-01-11T12:29:00.422Z,33.30
2019-01-11T12:30:00.383Z,32.60
2019-01-11T12:31:00.348Z,33.90
2019-01-11T12:32:00.311Z,34.40
2019-01-11T12:33:00.272Z,34.00
2019-01-11T12:34:00.230Z,35.00
2019-01-11T12:35:00.199Z,35.80
2019-01-11T12:36:00.160Z,36.50
2019-01-11T12:37:00.113Z,34.40
2019-01-11T12:38:00.078Z,35.10
2019-01-11T12:39:00.040Z,35.40
2019-01-11T12:40:00.001Z,34.80
2019-01-11T12:40:59.962Z,36.70
2019-01-11T12:41:59.924Z,36.40
2019-01-11T12:42:59.882Z,36.40
2019-01-11T12:43:59.847Z,36.90
2019-01-11T12:44:59.808Z,35.90
2019-01-11T12:45:59.770Z,36.40
2019-01-11T12:46:59.732Z,36.20
2019-01-11T12:47:59.691Z,38.10
2019-01-11T12:48:59.649Z,37.90
2019-01-11T12:49:59.617Z,38.20
2019-01-11T12:50:59.576Z,37.00
2019-01-11T12:51:59.539Z,36.70